Airfield :
LOGIN :

Register | Disclaimer

   EN    FR    IT 

 










Legend :    VFR   Marginal VFR   IFR   Intensive IFR   Very Intensive IFR
Visi :
Ceiling :
>= 8 km
>= 3000ft
5 to 8 km
1000 to 3000 ft
1500m to 5 km
500 to 1000 ft
800 to 1500m
200 to 500 ft
< 800m
< 200 ft
Symbols :   Thunderstorms  Fog  Heavy snow  Heavy precipitations  Wind > 20 kt
SIGMETs :     Misc.  Thunderstorms  Icing  Turbulence  Mountain Waves  Volcanic Ashes






- Airport Elevation : 170 ft
- IATA code : KRP


EKKA - Karup

CURRENT METAR :
  • 271750Z 08001KT 9999 SCT035 BKN089 02/00 Q0996 TEMPO 3000 -SHSNRA BKN012CB

EXPIRED METARs :
  • 271743Z 33002KT 9999 FEW016 BKN048 02/00 Q0996 TEMPO 3000 -SHSNRA BKN012CB
  • 271720Z 23007KT 190V250 6000 -SHRA SCT012CB BKN026 02/00 Q0996 TEMPO 3000 -SHSNRA BKN012CB
  • 271716Z 21006KT 160V230 3500 -SHRASN BKN014CB BKN026 03/00 Q0996 TEMPO 3000 -SHSNRA BKN012CB
  • 271650Z AUTO 19008KT 160V230 9999 FEW028/// BKN039/// BKN063/// 03/00 Q0995 TEMPO 3000 -SHRA BKN012CB
  • 271620Z AUTO 15002KT 9999 FEW057/// 04/00 Q0995 TEMPO 3000 -SHRA BKN012CB
  • 271550Z AUTO 14002KT 9999 FEW029/// 05/00 Q0995 TEMPO 5000 -SHRA BKN012CB
  • 271520Z AUTO 19002KT 9999 BKN053/// 05/M00 Q0995 TEMPO 5000 -SHRA BKN012CB

TAF TAF EKKA
Valid from the 27 at 18:00 until the 28 at 18:00 UTC


271721Z 2718/2818 20005KT 9999 SCT030
TEMPO 2718/2721 3000 -SHRASN SCT008 BKN012CB
TEMPO 2721/2801 1500 SHSNRA BKN003 BKN012CB
BECMG 2722/2801 26008KT
TEMPO 2801/2809 3000 -SHSNRA SCT008 BKN012CB
TEMPO 2809/2816 27012G22KT 4000 -SHRASN SCT008 BKN012CB
BECMG 2816/2818 20008KT



MET'MAP, your aeronautical weather chart ! - Copyright ORBIFLY December 2007 - Disclaimer

ORBIFLY MET'MAP TEAM :

Programming & Development : Alexandra Zaïnal
Concept & original design : Baudouin d'Aumeries
Assistance for programming : Marc-Olivier Méhu
Technical & hardware support : Manuel Goepfert

Contact : metmap@orbifly.com




SOURCES & CREDITS :

   NOAA